createdAt,value
2022-08-27T00:02:09.657Z,22.40
2022-08-27T00:04:38.804Z,22.40
2022-08-27T00:07:07.979Z,22.30
2022-08-27T00:09:36.709Z,22.30
2022-08-27T00:12:06.423Z,22.30
2022-08-27T00:14:35.996Z,22.30
2022-08-27T00:17:06.571Z,22.30
2022-08-27T00:19:35.896Z,22.20
2022-08-27T00:22:05.822Z,22.10
2022-08-27T00:24:34.169Z,22.10
2022-08-27T00:27:02.580Z,22.10
2022-08-27T00:29:30.870Z,22.00
2022-08-27T00:31:59.891Z,22.00
2022-08-27T00:34:29.946Z,21.90
2022-08-27T00:36:58.341Z,21.80
2022-08-27T00:39:26.731Z,21.80
2022-08-27T00:41:55.030Z,21.80
2022-08-27T00:44:23.157Z,21.80
2022-08-27T00:46:54.824Z,21.90
2022-08-27T00:49:25.829Z,21.80
2022-08-27T00:51:58.828Z,21.90
2022-08-27T00:54:29.156Z,21.80
2022-08-27T00:56:59.618Z,21.80
2022-08-27T00:59:31.207Z,21.70
2022-08-27T01:02:17.343Z,21.70
2022-08-27T01:04:48.113Z,21.60
2022-08-27T01:07:17.811Z,21.60
2022-08-27T01:09:48.335Z,21.60
2022-08-27T01:12:18.657Z,21.60
2022-08-27T01:14:47.804Z,21.60
2022-08-27T01:17:17.284Z,21.70
2022-08-27T01:19:50.719Z,21.80
2022-08-27T01:22:42.735Z,21.80
2022-08-27T01:25:16.379Z,21.90
2022-08-27T01:27:45.992Z,21.90
2022-08-27T01:30:17.240Z,21.90
2022-08-27T01:32:46.634Z,21.80
2022-08-27T01:35:16.054Z,21.80
2022-08-27T01:37:46.587Z,21.80
2022-08-27T01:40:19.051Z,21.80
2022-08-27T01:42:51.063Z,21.90
2022-08-27T01:45:21.482Z,21.80
2022-08-27T01:47:49.645Z,21.80
2022-08-27T01:50:23.035Z,21.80
2022-08-27T01:52:51.625Z,21.60
2022-08-27T01:55:25.086Z,21.70
2022-08-27T01:57:54.254Z,21.80
2022-08-27T02:00:26.907Z,21.80
2022-08-27T02:02:55.584Z,21.80
2022-08-27T02:05:24.535Z,21.80
2022-08-27T02:07:54.302Z,21.80
2022-08-27T02:10:27.563Z,21.80
2022-08-27T02:12:55.909Z,21.80
2022-08-27T02:15:25.416Z,21.80
2022-08-27T02:17:53.840Z,21.80
2022-08-27T02:20:24.087Z,21.60
2022-08-27T02:22:57.983Z,21.60
2022-08-27T02:25:29.001Z,21.80
2022-08-27T02:28:00.775Z,21.80
2022-08-27T02:30:32.139Z,21.80
2022-08-27T02:33:01.181Z,21.80
2022-08-27T02:35:31.427Z,21.90
2022-08-27T02:38:00.988Z,21.80
2022-08-27T02:40:31.003Z,20.60
2022-08-27T02:42:59.323Z,20.00
2022-08-27T02:45:27.683Z,19.70
2022-08-27T02:47:56.140Z,19.70
2022-08-27T02:50:26.850Z,19.90
2022-08-27T02:52:56.160Z,20.30
2022-08-27T02:55:24.695Z,20.70
2022-08-27T02:57:54.236Z,20.90
2022-08-27T03:00:24.919Z,21.10
2022-08-27T03:02:53.386Z,21.30
2022-08-27T03:05:21.891Z,21.40
2022-08-27T03:07:50.653Z,21.50
2022-08-27T03:10:20.710Z,21.60
2022-08-27T03:12:49.552Z,21.60
2022-08-27T03:15:20.281Z,21.60
2022-08-27T03:18:06.211Z,21.60
2022-08-27T03:20:34.767Z,21.60
2022-08-27T03:23:02.959Z,21.60
2022-08-27T03:25:32.080Z,21.60
2022-08-27T03:28:01.344Z,21.60
2022-08-27T03:30:31.103Z,21.60
2022-08-27T03:32:59.303Z,21.60
2022-08-27T03:35:27.668Z,21.60
2022-08-27T03:37:58.255Z,21.50
2022-08-27T03:40:26.631Z,21.50
2022-08-27T03:42:54.877Z,21.50
2022-08-27T03:45:23.576Z,21.50
2022-08-27T03:47:53.832Z,21.50
2022-08-27T03:50:22.208Z,21.50
2022-08-27T03:52:50.491Z,21.50
2022-08-27T03:55:18.739Z,21.50
2022-08-27T03:57:47.027Z,21.40
2022-08-27T04:00:15.616Z,21.40
2022-08-27T04:02:45.943Z,21.40
2022-08-27T04:05:15.962Z,21.40
2022-08-27T04:07:45.232Z,21.40
2022-08-27T04:10:14.483Z,21.40
2022-08-27T04:12:43.348Z,21.40
2022-08-27T04:15:13.816Z,21.50
2022-08-27T04:17:42.483Z,21.50
2022-08-27T04:20:34.129Z,21.40
2022-08-27T04:23:01.871Z,21.40
2022-08-27T04:25:30.166Z,21.40
2022-08-27T04:27:59.173Z,21.40
2022-08-27T04:30:27.520Z,21.40
2022-08-27T04:32:55.863Z,21.50
2022-08-27T04:35:24.032Z,21.50
2022-08-27T04:37:52.324Z,21.50
2022-08-27T04:40:22.384Z,21.50
2022-08-27T04:42:53.159Z,21.60
2022-08-27T04:45:21.564Z,21.60
2022-08-27T04:47:49.958Z,21.30
2022-08-27T04:50:18.272Z,21.40
2022-08-27T04:52:47.777Z,21.20
2022-08-27T04:55:16.172Z,20.90
2022-08-27T04:57:45.670Z,21.00
2022-08-27T05:00:15.308Z,21.20
2022-08-27T05:02:43.500Z,21.00
2022-08-27T05:05:15.524Z,20.80
2022-08-27T05:07:44.919Z,21.10
2022-08-27T05:10:13.136Z,21.30
2022-08-27T05:12:41.607Z,21.40
2022-08-27T05:15:12.747Z,21.50
2022-08-27T05:17:41.206Z,21.60
2022-08-27T05:20:11.078Z,21.60
2022-08-27T05:22:39.814Z,21.60
2022-08-27T05:25:11.253Z,21.60
2022-08-27T05:27:39.928Z,21.70
2022-08-27T05:30:12.107Z,21.70
2022-08-27T05:32:40.444Z,21.60
2022-08-27T05:35:12.855Z,21.60
2022-08-27T05:37:43.591Z,21.60
2022-08-27T05:40:12.472Z,21.70
2022-08-27T05:42:40.714Z,21.60
2022-08-27T05:45:11.191Z,21.70
2022-08-27T05:47:44.421Z,21.60
2022-08-27T05:50:13.213Z,21.70
2022-08-27T05:52:41.406Z,21.60
2022-08-27T05:55:10.183Z,21.60
2022-08-27T05:57:38.679Z,21.60
2022-08-27T06:00:25.232Z,21.60
2022-08-27T06:02:54.928Z,21.60
2022-08-27T06:05:24.028Z,21.60
2022-08-27T06:07:52.330Z,21.60
2022-08-27T06:10:20.680Z,21.60
2022-08-27T06:12:48.897Z,21.60
2022-08-27T06:15:17.187Z,21.60
2022-08-27T06:17:45.408Z,21.60
2022-08-27T06:20:15.258Z,21.60
2022-08-27T06:22:45.736Z,21.60
2022-08-27T06:25:14.009Z,21.60
2022-08-27T06:27:42.172Z,21.50
2022-08-27T06:30:14.671Z,21.50
2022-08-27T06:32:45.676Z,21.50
2022-08-27T06:35:15.383Z,21.50
2022-08-27T06:37:43.530Z,21.50
2022-08-27T06:40:12.959Z,21.50
2022-08-27T06:42:41.369Z,21.50
2022-08-27T06:45:11.061Z,21.50
2022-08-27T06:47:39.604Z,21.50
2022-08-27T06:50:08.519Z,21.50
2022-08-27T06:52:38.393Z,21.50
2022-08-27T06:55:08.252Z,21.50
2022-08-27T06:57:36.795Z,21.50
2022-08-27T07:00:06.199Z,21.50
2022-08-27T07:02:34.496Z,21.50
2022-08-27T07:05:02.724Z,21.50
2022-08-27T07:07:37.176Z,21.50
2022-08-27T07:10:12.099Z,21.50
2022-08-27T07:12:40.680Z,21.50
2022-08-27T07:15:10.109Z,21.50
2022-08-27T07:17:38.286Z,21.40
2022-08-27T07:20:08.438Z,21.50
2022-08-27T07:22:36.803Z,21.50
2022-08-27T07:25:05.543Z,21.50
2022-08-27T07:27:35.463Z,21.50
2022-08-27T07:30:03.890Z,21.60
2022-08-27T07:32:32.100Z,21.60
2022-08-27T07:35:00.570Z,21.60
2022-08-27T07:37:35.240Z,21.60
2022-08-27T07:40:05.564Z,21.20
2022-08-27T07:42:52.506Z,21.20
2022-08-27T07:45:21.112Z,21.30
2022-08-27T07:47:50.251Z,21.50
2022-08-27T07:50:18.657Z,21.50
2022-08-27T07:52:46.992Z,21.60
2022-08-27T07:55:15.954Z,21.60
2022-08-27T07:57:48.090Z,21.60
2022-08-27T08:00:16.758Z,21.70
2022-08-27T08:02:47.559Z,21.70
2022-08-27T08:05:16.936Z,21.00
2022-08-27T08:07:45.239Z,21.10
2022-08-27T08:10:13.687Z,21.10
2022-08-27T08:12:42.656Z,21.20
2022-08-27T08:15:13.482Z,21.40
2022-08-27T08:17:41.766Z,21.50
2022-08-27T08:20:27.419Z,21.60
2022-08-27T08:22:59.952Z,21.60
2022-08-27T08:25:28.543Z,21.20
2022-08-27T08:28:02.726Z,20.70
2022-08-27T08:30:35.189Z,21.00
2022-08-27T08:33:04.116Z,20.90
2022-08-27T08:35:34.163Z,20.80
2022-08-27T08:38:09.398Z,20.80
2022-08-27T08:40:41.760Z,20.70
2022-08-27T08:43:22.451Z,20.80
2022-08-27T08:45:53.035Z,21.00
2022-08-27T08:48:23.536Z,21.10
2022-08-27T08:50:57.125Z,20.90
2022-08-27T08:53:37.728Z,21.00
2022-08-27T08:56:10.384Z,21.00
2022-08-27T08:58:44.972Z,21.10
2022-08-27T09:01:18.491Z,20.90
2022-08-27T09:03:53.704Z,21.00
2022-08-27T09:06:31.751Z,21.00
2022-08-27T09:09:05.407Z,21.00
2022-08-27T09:11:40.741Z,21.00
2022-08-27T09:14:22.165Z,20.80
2022-08-27T09:16:56.351Z,21.00
2022-08-27T09:19:25.867Z,21.10
2022-08-27T09:21:59.967Z,21.10
2022-08-27T09:24:38.635Z,21.20
2022-08-27T09:27:07.179Z,21.30
2022-08-27T09:29:37.764Z,21.30
2022-08-27T09:32:10.511Z,21.30
2022-08-27T09:34:40.635Z,21.40
2022-08-27T09:37:15.260Z,21.40
2022-08-27T09:39:52.365Z,21.50
2022-08-27T09:42:30.971Z,21.60
2022-08-27T09:44:59.284Z,21.60
2022-08-27T09:47:29.082Z,21.50
2022-08-27T09:50:06.988Z,21.40
2022-08-27T09:52:40.616Z,21.30
2022-08-27T09:55:09.444Z,21.30
2022-08-27T09:57:41.652Z,21.20
2022-08-27T10:00:16.813Z,21.20
2022-08-27T10:02:54.001Z,21.20
2022-08-27T10:05:29.268Z,21.30
2022-08-27T10:08:02.816Z,21.30
2022-08-27T10:10:40.979Z,21.30
2022-08-27T10:13:17.070Z,21.20
2022-08-27T10:15:54.805Z,21.20
2022-08-27T10:18:32.581Z,21.10
2022-08-27T10:21:08.790Z,21.20
2022-08-27T10:23:43.508Z,21.30
2022-08-27T10:26:18.499Z,21.10
2022-08-27T10:29:00.204Z,21.10
2022-08-27T10:31:41.405Z,21.00
2022-08-27T10:34:31.579Z,21.10
2022-08-27T10:37:11.365Z,21.10
2022-08-27T10:40:03.218Z,21.10
2022-08-27T10:42:36.689Z,21.20
2022-08-27T10:45:30.589Z,21.20
2022-08-27T10:48:08.012Z,21.20
2022-08-27T10:50:45.675Z,20.90
2022-08-27T10:53:27.649Z,21.00
2022-08-27T10:56:07.780Z,21.00
2022-08-27T10:58:53.158Z,21.00
2022-08-27T11:01:28.960Z,21.00
2022-08-27T11:04:02.644Z,21.30
2022-08-27T11:06:37.059Z,21.60
2022-08-27T11:09:12.727Z,21.60
2022-08-27T11:14:38.744Z,21.50
2022-08-27T11:17:14.543Z,21.50
2022-08-27T11:19:49.620Z,21.50
2022-08-27T11:22:26.889Z,21.60
2022-08-27T11:25:02.397Z,21.60
2022-08-27T11:27:33.786Z,21.50
2022-08-27T11:30:08.296Z,21.30
2022-08-27T11:32:46.534Z,21.30
2022-08-27T11:35:22.675Z,21.30
2022-08-27T11:38:27.820Z,21.40
2022-08-27T11:41:09.724Z,21.30
2022-08-27T11:43:38.731Z,21.50
2022-08-27T11:46:09.323Z,21.70
2022-08-27T11:48:40.574Z,21.60
2022-08-27T11:51:11.919Z,21.50
2022-08-27T11:53:52.365Z,21.70
2022-08-27T11:56:39.684Z,21.60
2022-08-27T11:59:22.603Z,21.70
2022-08-27T12:01:52.776Z,21.90
2022-08-27T12:04:33.785Z,21.90
2022-08-27T12:07:06.303Z,21.80
2022-08-27T12:09:56.183Z,21.90
2022-08-27T12:12:35.027Z,22.20
2022-08-27T12:15:09.467Z,22.50
2022-08-27T12:17:46.428Z,22.40
2022-08-27T12:20:24.764Z,22.50
2022-08-27T12:23:25.904Z,22.60
2022-08-27T12:26:01.664Z,22.70
2022-08-27T12:28:30.477Z,22.60
2022-08-27T12:30:58.942Z,22.60
2022-08-27T12:33:32.915Z,22.80
2022-08-27T12:36:09.972Z,22.70
2022-08-27T12:38:50.593Z,22.70
2022-08-27T12:41:28.878Z,22.60
2022-08-27T12:44:08.997Z,22.60
2022-08-27T12:46:46.692Z,22.50
2022-08-27T12:49:39.009Z,22.70
2022-08-27T12:52:20.097Z,22.60
2022-08-27T12:55:02.915Z,22.70
2022-08-27T12:57:40.224Z,22.70
2022-08-27T13:00:14.925Z,22.90
2022-08-27T13:03:08.294Z,22.90
2022-08-27T13:05:41.936Z,22.80
2022-08-27T13:08:21.324Z,22.90
2022-08-27T13:10:50.031Z,23.10
2022-08-27T13:13:22.299Z,23.00
2022-08-27T13:15:53.200Z,23.10
2022-08-27T13:18:22.383Z,23.00
2022-08-27T13:21:01.084Z,22.90
2022-08-27T13:23:30.034Z,22.80
2022-08-27T13:26:04.448Z,22.60
2022-08-27T13:28:35.558Z,22.70
2022-08-27T13:31:05.119Z,22.60
2022-08-27T13:33:36.108Z,22.60
2022-08-27T13:36:06.787Z,22.60
2022-08-27T13:38:37.566Z,22.70
2022-08-27T13:41:08.851Z,23.00
2022-08-27T13:43:42.380Z,23.20
2022-08-27T13:46:14.060Z,23.30
2022-08-27T13:48:43.550Z,23.50
2022-08-27T13:51:13.343Z,23.40
2022-08-27T13:54:05.031Z,23.50
2022-08-27T13:56:35.742Z,23.50
2022-08-27T13:59:13.271Z,23.80
2022-08-27T14:01:54.992Z,23.70
2022-08-27T14:04:26.195Z,23.80
2022-08-27T14:06:55.671Z,24.00
2022-08-27T14:09:27.800Z,24.00
2022-08-27T14:12:01.927Z,23.60
2022-08-27T14:14:37.027Z,23.80
2022-08-27T14:17:08.821Z,23.80
2022-08-27T14:19:37.583Z,23.80
2022-08-27T14:22:06.295Z,23.70
2022-08-27T14:24:34.774Z,23.70
2022-08-27T14:27:07.464Z,23.70
2022-08-27T14:29:37.883Z,23.90
2022-08-27T14:32:06.554Z,24.00
2022-08-27T14:34:35.072Z,24.00
2022-08-27T14:37:03.945Z,24.00
2022-08-27T14:39:32.632Z,24.10
2022-08-27T14:42:00.835Z,24.10
2022-08-27T14:44:29.257Z,24.20
2022-08-27T14:47:00.082Z,24.30
2022-08-27T14:49:34.594Z,24.30
2022-08-27T14:52:04.111Z,24.20
2022-08-27T14:54:33.763Z,24.10
2022-08-27T14:57:02.960Z,24.10
2022-08-27T14:59:31.795Z,24.00
2022-08-27T15:02:02.595Z,23.90
2022-08-27T15:04:32.371Z,23.90
2022-08-27T15:07:00.890Z,23.90
2022-08-27T15:09:30.023Z,23.80
2022-08-27T15:11:59.301Z,23.70
2022-08-27T15:14:30.069Z,23.70
2022-08-27T15:16:58.483Z,23.50
2022-08-27T15:19:29.063Z,23.50
2022-08-27T15:22:04.017Z,23.50
2022-08-27T15:24:40.111Z,23.50
2022-08-27T15:27:08.617Z,23.50
2022-08-27T15:29:36.798Z,23.40
2022-08-27T15:32:05.934Z,23.50
2022-08-27T15:34:35.815Z,23.40
2022-08-27T15:37:04.146Z,23.50
2022-08-27T15:39:32.447Z,23.50
2022-08-27T15:42:06.794Z,23.50
2022-08-27T15:44:35.592Z,23.50
2022-08-27T15:47:03.764Z,23.50
2022-08-27T15:49:31.907Z,23.50
2022-08-27T15:52:01.793Z,23.60
2022-08-27T15:54:30.162Z,23.60
2022-08-27T15:57:00.015Z,23.70
2022-08-27T15:59:28.694Z,23.60
2022-08-27T16:01:57.547Z,23.60
2022-08-27T16:04:25.790Z,23.70
2022-08-27T16:06:54.263Z,23.70
2022-08-27T16:09:24.002Z,23.70
2022-08-27T16:11:52.221Z,23.70
2022-08-27T16:14:20.447Z,23.60
2022-08-27T16:16:50.418Z,23.70
2022-08-27T16:19:20.016Z,23.70
2022-08-27T16:21:49.894Z,23.60
2022-08-27T16:24:21.520Z,23.60
2022-08-27T16:26:51.583Z,23.50
2022-08-27T16:29:19.930Z,23.50
2022-08-27T16:31:48.063Z,23.50
2022-08-27T16:34:21.664Z,23.60
2022-08-27T16:36:49.825Z,23.50
2022-08-27T16:39:17.986Z,23.60
2022-08-27T16:41:46.434Z,23.60
2022-08-27T16:44:17.682Z,23.60
2022-08-27T16:46:45.859Z,23.70
2022-08-27T16:49:31.277Z,23.70
2022-08-27T16:52:00.114Z,23.70
2022-08-27T16:54:28.927Z,23.70
2022-08-27T16:56:57.399Z,23.70
2022-08-27T16:59:27.237Z,23.60
2022-08-27T17:01:56.505Z,23.70
2022-08-27T17:04:31.256Z,23.60
2022-08-27T17:07:02.814Z,23.70
2022-08-27T17:09:31.885Z,23.60
2022-08-27T17:12:04.415Z,23.60
2022-08-27T17:14:37.727Z,23.60
2022-08-27T17:17:09.661Z,23.60
2022-08-27T17:19:37.981Z,23.70
2022-08-27T17:22:09.399Z,23.70
2022-08-27T17:24:37.717Z,23.70
2022-08-27T17:27:06.486Z,23.50
2022-08-27T17:29:36.800Z,23.40
2022-08-27T17:32:06.285Z,23.40
2022-08-27T17:34:34.934Z,23.40
2022-08-27T17:37:03.107Z,23.40
2022-08-27T17:39:31.370Z,23.40
2022-08-27T17:41:59.949Z,23.40
2022-08-27T17:44:31.573Z,23.40
2022-08-27T17:47:03.983Z,23.30
2022-08-27T17:49:32.658Z,23.20
2022-08-27T17:52:02.578Z,23.20
2022-08-27T17:54:34.099Z,23.20
2022-08-27T17:57:03.843Z,23.10
2022-08-27T17:59:32.047Z,23.00
2022-08-27T18:02:02.557Z,23.10
2022-08-27T18:04:30.779Z,23.00
2022-08-27T18:06:59.134Z,23.00
2022-08-27T18:09:27.262Z,23.00
2022-08-27T18:11:56.545Z,22.80
2022-08-27T18:14:25.022Z,22.80
2022-08-27T18:16:53.235Z,22.60
2022-08-27T18:19:22.859Z,22.60
2022-08-27T18:21:52.276Z,22.60
2022-08-27T18:24:20.810Z,22.60
2022-08-27T18:26:49.516Z,22.50
2022-08-27T18:29:17.979Z,22.80
2022-08-27T18:31:46.224Z,23.20
2022-08-27T18:34:20.095Z,23.40
2022-08-27T18:36:50.427Z,23.50
2022-08-27T18:39:20.036Z,23.70
2022-08-27T18:41:48.259Z,23.70
2022-08-27T18:44:17.601Z,23.70
2022-08-27T18:46:46.557Z,23.80
2022-08-27T18:49:14.864Z,23.80
2022-08-27T18:51:47.145Z,23.80
2022-08-27T18:54:20.852Z,23.80
2022-08-27T18:56:49.304Z,23.80
2022-08-27T18:59:17.779Z,23.80
2022-08-27T19:01:46.685Z,23.80
2022-08-27T19:04:16.556Z,23.80
2022-08-27T19:06:44.833Z,23.70
2022-08-27T19:09:14.024Z,23.70
2022-08-27T19:11:43.851Z,23.70
2022-08-27T19:14:12.017Z,23.80
2022-08-27T19:16:43.507Z,23.80
2022-08-27T19:19:13.216Z,23.80
2022-08-27T19:21:41.915Z,23.80
2022-08-27T19:24:10.823Z,23.70
2022-08-27T19:26:39.697Z,23.70
2022-08-27T19:29:09.895Z,23.70
2022-08-27T19:31:39.104Z,23.70
2022-08-27T19:34:08.970Z,23.60
2022-08-27T19:36:40.084Z,23.60
2022-08-27T19:39:09.603Z,23.50
2022-08-27T19:41:38.174Z,23.40
2022-08-27T19:44:06.396Z,23.40
2022-08-27T19:46:37.905Z,23.40
2022-08-27T19:49:06.093Z,23.30
2022-08-27T19:51:34.574Z,23.30
2022-08-27T19:54:02.772Z,23.30
2022-08-27T19:56:32.717Z,23.30
2022-08-27T19:59:08.929Z,23.30
2022-08-27T20:01:43.755Z,23.20
2022-08-27T20:04:11.995Z,23.20
2022-08-27T20:06:40.263Z,23.10
2022-08-27T20:09:11.097Z,23.10
2022-08-27T20:11:39.413Z,23.10
2022-08-27T20:14:07.727Z,23.10
2022-08-27T20:16:39.283Z,23.10
2022-08-27T20:19:09.744Z,23.10
2022-08-27T20:21:38.063Z,23.10
2022-08-27T20:24:06.851Z,23.10
2022-08-27T20:26:35.155Z,23.00
2022-08-27T20:29:03.947Z,23.00
2022-08-27T20:31:32.505Z,23.00
2022-08-27T20:34:00.675Z,23.00
2022-08-27T20:36:33.105Z,23.00
2022-08-27T20:39:01.905Z,23.00
2022-08-27T20:41:31.087Z,22.90
2022-08-27T20:43:59.587Z,22.80
2022-08-27T20:46:30.835Z,22.80
2022-08-27T20:48:59.188Z,22.80
2022-08-27T20:51:29.399Z,22.80
2022-08-27T20:53:57.887Z,22.80
2022-08-27T20:56:26.155Z,22.70
2022-08-27T20:59:11.626Z,22.70
2022-08-27T21:01:39.965Z,22.70
2022-08-27T21:04:08.667Z,22.70
2022-08-27T21:06:38.254Z,22.70
2022-08-27T21:09:06.633Z,22.80
2022-08-27T21:11:35.107Z,22.70
2022-08-27T21:14:03.419Z,22.70
2022-08-27T21:16:31.700Z,22.70
2022-08-27T21:19:00.184Z,22.60
2022-08-27T21:21:28.404Z,22.60
2022-08-27T21:23:58.078Z,22.60
2022-08-27T21:26:26.349Z,21.70
2022-08-27T21:28:55.569Z,21.50
2022-08-27T21:31:25.086Z,21.80
2022-08-27T21:33:53.382Z,22.00
2022-08-27T21:36:21.955Z,22.10
2022-08-27T21:38:50.532Z,22.20
2022-08-27T21:41:20.968Z,22.30
2022-08-27T21:43:49.452Z,22.30
2022-08-27T21:46:19.651Z,22.30
2022-08-27T21:48:47.951Z,22.30
2022-08-27T21:51:27.091Z,22.10
2022-08-27T21:53:55.403Z,22.10
2022-08-27T21:56:25.692Z,22.20
2022-08-27T21:58:54.111Z,22.30
2022-08-27T22:01:22.576Z,22.20
2022-08-27T22:03:51.783Z,22.20
2022-08-27T22:06:20.528Z,22.30
2022-08-27T22:08:49.148Z,22.30
2022-08-27T22:11:21.933Z,22.30
2022-08-27T22:13:53.919Z,22.30
2022-08-27T22:16:22.137Z,22.30
2022-08-27T22:18:54.677Z,22.30
2022-08-27T22:21:23.623Z,22.20
2022-08-27T22:23:52.539Z,22.10
2022-08-27T22:26:21.678Z,22.10
2022-08-27T22:28:50.456Z,22.00
2022-08-27T22:31:20.433Z,21.90
2022-08-27T22:33:49.104Z,21.90
2022-08-27T22:36:17.650Z,21.90
2022-08-27T22:38:45.850Z,21.80
2022-08-27T22:41:18.485Z,21.90
2022-08-27T22:43:47.123Z,21.80
2022-08-27T22:46:15.678Z,21.90
2022-08-27T22:48:45.347Z,21.90
2022-08-27T22:51:13.960Z,21.90
2022-08-27T22:53:42.160Z,21.80
2022-08-27T22:56:10.408Z,21.90
2022-08-27T22:58:38.916Z,21.90
2022-08-27T23:01:07.993Z,21.90
2022-08-27T23:03:36.376Z,21.80
2022-08-27T23:06:06.503Z,21.70
2022-08-27T23:08:34.839Z,21.70
2022-08-27T23:11:03.906Z,21.70
2022-08-27T23:13:32.890Z,21.60
2022-08-27T23:16:02.857Z,21.60
2022-08-27T23:18:32.205Z,21.60
2022-08-27T23:21:01.015Z,21.60
2022-08-27T23:23:31.095Z,21.50
2022-08-27T23:26:17.369Z,21.50
2022-08-27T23:28:45.979Z,21.50
2022-08-27T23:31:14.530Z,21.50
2022-08-27T23:33:43.690Z,21.50
2022-08-27T23:36:12.026Z,21.40
2022-08-27T23:38:41.912Z,21.40
2022-08-27T23:41:10.569Z,21.50
2022-08-27T23:43:38.959Z,21.40
2022-08-27T23:46:07.320Z,21.40
2022-08-27T23:48:35.656Z,21.40
2022-08-27T23:51:04.376Z,21.30
2022-08-27T23:53:33.134Z,21.30
2022-08-27T23:56:02.787Z,21.30
2022-08-27T23:58:31.154Z,21.30
